Time;durP1;ratioP1;P1;durP2;ratioP2;P2;SDS_P1;SDS_P2;PMS_P1;PMS_P2;Temp;Humidity;BMP_temperature;BMP_pressure;BME280_temperature;BME280_humidity;BME280_pressure;Samples;Min_cycle;Max_cycle;Signal;HPM_P1;HPM_P2
2021/11/06 00:01:11;;;;;;;7.20;3.80;;;;;;;9.72;80.28;101903.41;5080349;28;20413;-74
2021/11/06 00:03:36;;;;;;;5.03;3.33;;;;;;;10.16;78.79;101905.66;5080657;28;20165;-73
2021/11/06 00:06:01;;;;;;;6.37;3.67;;;;;;;9.69;79.68;101910.28;5080214;28;20588;-74
2021/11/06 00:08:27;;;;;;;9.33;3.97;;;;;;;9.83;79.90;101911.56;5080379;28;20201;-74
2021/11/06 00:10:52;;;;;;;7.73;4.10;;;;;;;9.81;79.64;101899.34;5080447;28;20173;-73
2021/11/06 00:13:18;;;;;;;5.70;3.20;;;;;;;9.72;79.64;101916.44;5096021;28;20422;-73
2021/11/06 00:15:44;;;;;;;6.67;3.80;;;;;;;9.81;79.57;101920.16;5100559;28;20541;-75
2021/11/06 00:18:10;;;;;;;6.70;3.57;;;;;;;9.63;79.44;101918.75;5100771;28;20176;-74
2021/11/06 00:20:35;;;;;;;5.20;3.30;;;;;;;9.57;79.62;101921.16;5100233;28;20395;-74
2021/11/06 00:23:00;;;;;;;7.40;3.50;;;;;;;9.89;78.22;101923.91;5081131;28;20185;-72
2021/11/06 00:25:26;;;;;;;9.87;4.17;;;;;;;9.83;78.62;101926.31;5080249;28;20569;-74
2021/11/06 00:27:51;;;;;;;8.37;3.77;;;;;;;9.87;78.41;101921.25;5079842;28;20207;-74
2021/11/06 00:30:17;;;;;;;7.73;3.90;;;;;;;9.70;79.28;101933.75;5080031;28;20414;-74
2021/11/06 00:32:43;;;;;;;4.37;3.40;;;;;;;9.60;79.53;101926.47;5080175;28;20546;-69
2021/11/06 00:35:09;;;;;;;4.77;3.40;;;;;;;9.45;79.68;101934.66;5079872;28;20164;-69
2021/11/06 00:37:38;;;;;;;9.53;3.87;;;;;;;9.60;79.19;101936.88;5079795;28;20405;-68
2021/11/06 00:40:04;;;;;;;5.00;3.23;;;;;;;9.74;79.04;101925.19;5080323;28;20765;-69
2021/11/06 00:42:30;;;;;;;5.60;3.67;;;;;;;9.52;79.43;101938.34;5079270;28;20390;-70
2021/11/06 00:44:55;;;;;;;13.43;6.03;;;;;;;9.53;79.20;101934.91;5079422;28;20408;-69
2021/11/06 00:47:20;;;;;;;9.20;3.70;;;;;;;9.56;79.33;101941.09;5079975;28;20589;-68
2021/11/06 00:49:46;;;;;;;5.67;3.87;;;;;;;9.68;78.87;101942.34;5079518;28;20231;-69
2021/11/06 00:52:11;;;;;;;5.40;4.00;;;;;;;9.80;78.78;101942.75;5078963;28;20285;-70
2021/11/06 00:54:36;;;;;;;5.73;4.23;;;;;;;9.59;78.78;101949.03;5079849;28;20165;-70
2021/11/06 00:57:02;;;;;;;8.00;3.77;;;;;;;9.77;78.24;101943.53;5061725;28;20188;-70
2021/11/06 00:59:29;;;;;;;6.20;3.43;;;;;;;9.64;78.70;101943.94;5079379;28;20534;-70
2021/11/06 01:01:54;;;;;;;5.23;3.77;;;;;;;9.64;79.05;101949.16;5079850;28;20382;-68
2021/11/06 01:04:20;;;;;;;7.00;3.80;;;;;;;9.90;77.95;101946.50;5061978;28;20407;-69
2021/11/06 01:06:45;;;;;;;7.93;3.67;;;;;;;9.61;78.75;101943.84;5079221;28;20161;-69
2021/11/06 01:09:11;;;;;;;7.40;3.97;;;;;;;9.65;78.62;101944.81;5079634;28;20597;-69
2021/11/06 01:11:36;;;;;;;5.00;3.67;;;;;;;9.35;79.51;101945.56;5080370;28;20216;-71
2021/11/06 01:14:02;;;;;;;6.60;3.93;;;;;;;9.55;78.84;101948.84;5099130;28;20179;-73
2021/11/06 01:16:27;;;;;;;7.97;3.73;;;;;;;9.36;79.27;101953.47;5099661;28;20187;-70
2021/11/06 01:18:53;;;;;;;4.60;3.23;;;;;;;9.58;78.65;101943.75;5081814;28;20413;-70
2021/11/06 01:21:19;;;;;;;7.13;3.60;;;;;;;9.68;78.93;101938.00;5100175;28;20554;-71
2021/11/06 01:23:44;;;;;;;5.13;3.30;;;;;;;9.86;77.91;101939.44;5079078;28;20439;-68
2021/11/06 01:26:10;;;;;;;6.90;3.40;;;;;;;9.46;78.60;101930.31;5061489;28;20215;-70
2021/11/06 01:28:35;;;;;;;4.90;3.33;;;;;;;9.70;77.86;101941.56;5078765;28;20200;-70
2021/11/06 01:31:01;;;;;;;10.07;3.47;;;;;;;9.53;78.09;101940.13;5078978;28;20169;-71
2021/11/06 01:33:26;;;;;;;5.87;3.80;;;;;;;9.43;79.24;101942.41;5078704;28;20160;-71
2021/11/06 01:35:51;;;;;;;6.20;3.53;;;;;;;9.65;78.54;101937.00;5078565;28;20175;-71
2021/11/06 01:38:17;;;;;;;6.03;3.63;;;;;;;9.17;79.95;101940.63;5078845;28;20169;-70
2021/11/06 01:40:43;;;;;;;5.20;3.63;;;;;;;9.18;79.88;101947.59;5078422;28;20176;-70
2021/11/06 01:43:08;;;;;;;4.93;3.50;;;;;;;9.59;78.47;101941.22;5078660;28;20165;-69
2021/11/06 01:45:34;;;;;;;7.33;3.30;;;;;;;9.66;77.86;101941.38;5079187;28;20378;-68
2021/11/06 01:48:00;;;;;;;7.33;3.60;;;;;;;9.48;79.03;101941.69;5078392;28;20262;-69
2021/11/06 01:50:25;;;;;;;5.90;3.17;;;;;;;9.56;78.50;101941.09;5078296;28;20221;-70
2021/11/06 01:52:51;;;;;;;9.00;4.60;;;;;;;9.44;78.25;101938.97;5078853;28;20165;-71
2021/11/06 01:55:16;;;;;;;15.73;6.33;;;;;;;9.34;79.20;101944.69;5060897;28;20165;-69
2021/11/06 01:57:43;;;;;;;5.27;3.83;;;;;;;9.36;78.54;101936.94;5078345;28;20187;-70
2021/11/06 02:00:13;;;;;;;4.80;3.50;;;;;;;9.46;78.80;101931.22;5078788;28;20180;-68
2021/11/06 02:02:42;;;;;;;5.63;3.60;;;;;;;9.37;79.47;101934.38;5078162;28;20425;-68
2021/11/06 02:05:08;;;;;;;6.93;4.13;;;;;;;9.25;79.24;101946.97;5077397;28;20411;-70
2021/11/06 02:07:34;;;;;;;4.70;3.93;;;;;;;9.51;79.31;101932.25;5078259;28;20440;-70
2021/11/06 02:09:59;;;;;;;5.30;3.63;;;;;;;9.58;78.50;101934.22;5078225;28;20402;-71
2021/11/06 02:12:25;;;;;;;5.23;3.40;;;;;;;10.60;81.86;101932.16;5060886;28;20238;-64
2021/11/06 02:14:51;;;;;;;7.23;3.57;;;;;;;11.11;76.14;101930.94;5077802;28;20177;-63
2021/11/06 02:17:16;;;;;;;5.43;3.97;;;;;;;10.54;75.00;101937.22;5077860;28;20423;-66
2021/11/06 02:19:41;;;;;;;4.10;3.13;;;;;;;10.25;75.09;101938.91;5078597;28;20190;-68
2021/11/06 02:22:07;;;;;;;5.60;3.70;;;;;;;10.09;76.33;101932.34;5077815;28;20169;-69
2021/11/06 02:24:32;;;;;;;7.20;3.70;;;;;;;9.71;78.07;101930.28;5078068;28;20175;-68
2021/11/06 02:26:57;;;;;;;6.23;3.30;;;;;;;9.64;79.48;101941.34;5061129;28;20180;-69
2021/11/06 02:29:23;;;;;;;4.57;3.50;;;;;;;9.46;79.99;101932.91;5078120;28;20176;-69
2021/11/06 02:31:48;;;;;;;7.50;3.80;;;;;;;9.49;79.13;101935.66;5077834;28;20184;-69
2021/11/06 02:34:13;;;;;;;4.60;3.60;;;;;;;9.65;78.29;101931.81;5078439;28;20168;-68
2021/11/06 02:36:39;;;;;;;6.60;3.50;;;;;;;9.66;78.78;101942.28;5078061;28;20180;-68
2021/11/06 02:39:05;;;;;;;4.83;3.70;;;;;;;9.71;78.97;101940.69;5078349;28;20216;-68
2021/11/06 02:41:31;;;;;;;5.40;3.77;;;;;;;9.86;77.84;101942.03;5078202;28;20522;-69
2021/11/06 02:43:58;;;;;;;7.70;4.33;;;;;;;9.72;78.15;101947.69;5078591;28;20490;-68
2021/11/06 02:46:24;;;;;;;7.17;3.60;;;;;;;9.83;78.18;101945.44;5078438;28;20176;-68
2021/11/06 02:48:49;;;;;;;10.93;5.20;;;;;;;9.61;78.74;101938.66;5078186;28;20418;-69
2021/11/06 02:51:15;;;;;;;5.10;3.43;;;;;;;9.80;78.46;101939.25;5077523;28;20225;-69
2021/11/06 02:53:40;;;;;;;6.30;4.00;;;;;;;9.43;79.57;101945.00;5060299;28;20773;-68
2021/11/06 02:56:05;;;;;;;5.70;3.87;;;;;;;9.58;79.34;101943.75;5060945;28;20161;-69
2021/11/06 02:58:31;;;;;;;9.90;3.50;;;;;;;10.02;77.45;101946.91;5077912;28;20223;-68
2021/11/06 03:00:57;;;;;;;4.33;3.60;;;;;;;9.81;77.99;101947.13;5077807;28;20169;-68
2021/11/06 03:03:23;;;;;;;7.50;3.47;;;;;;;9.76;77.82;101944.34;5078090;28;20201;-69
2021/11/06 03:05:48;;;;;;;5.83;3.57;;;;;;;9.92;77.18;101944.84;5077536;28;20429;-68
2021/11/06 03:08:14;;;;;;;6.90;4.00;;;;;;;9.86;79.46;101952.47;5077572;28;20211;-68
2021/11/06 03:10:39;;;;;;;5.73;3.60;;;;;;;9.73;79.11;101957.28;5078155;28;20426;-68
2021/11/06 03:13:05;;;;;;;4.63;3.93;;;;;;;9.65;79.77;101948.34;5060193;28;20165;-68
2021/11/06 03:15:31;;;;;;;5.60;3.80;;;;;;;9.42;80.91;101942.38;5078904;28;20176;-68
2021/11/06 03:17:56;;;;;;;9.07;4.63;;;;;;;9.65;80.72;101939.63;5081691;28;20497;-68
2021/11/06 03:20:23;;;;;;;6.73;4.37;;;;;;;9.61;81.26;101941.25;5081496;28;20191;-67
2021/11/06 03:22:51;;;;;;;9.30;4.63;;;;;;;9.39;81.54;101940.53;5063742;28;20230;-67
2021/11/06 03:25:16;;;;;;;8.90;4.67;;;;;;;9.51;81.58;101936.56;5064171;28;20389;-69
2021/11/06 03:27:41;;;;;;;4.50;4.10;;;;;;;9.27;81.90;101929.72;5081123;28;20460;-68
2021/11/06 03:30:08;;;;;;;6.40;3.97;;;;;;;9.22;82.28;101931.28;5081237;28;20234;-67
2021/11/06 03:32:35;;;;;;;4.60;3.97;;;;;;;9.41;81.95;101936.25;5064504;28;20468;-67
2021/11/06 03:35:00;;;;;;;8.80;3.93;;;;;;;9.23;82.54;101925.25;5063765;28;20469;-67
2021/11/06 03:37:27;;;;;;;10.73;4.43;;;;;;;9.36;81.65;101921.31;5080888;28;20389;-67
2021/11/06 03:39:52;;;;;;;7.40;4.37;;;;;;;9.26;81.61;101928.81;5081244;28;20535;-67
2021/11/06 03:42:17;;;;;;;6.53;4.20;;;;;;;9.41;81.60;101924.97;5081442;28;20447;-67
2021/11/06 03:44:43;;;;;;;9.53;4.53;;;;;;;9.05;82.41;101922.88;5063745;28;20256;-68
2021/11/06 03:47:08;;;;;;;7.60;4.47;;;;;;;8.96;82.33;101925.13;5081304;28;20193;-67
2021/11/06 03:49:33;;;;;;;6.90;4.77;;;;;;;9.13;82.11;101933.56;5080720;28;20173;-67
2021/11/06 03:51:59;;;;;;;6.40;4.40;;;;;;;9.36;80.98;101921.31;5080355;28;20232;-67
2021/11/06 03:54:24;;;;;;;5.70;4.47;;;;;;;9.21;81.33;101926.88;5081038;28;20462;-67
2021/11/06 03:56:49;;;;;;;8.77;5.53;;;;;;;9.15;81.51;101924.09;5080813;28;20169;-67
2021/11/06 03:59:15;;;;;;;8.40;5.00;;;;;;;9.25;81.00;101913.16;5080770;28;20213;-68
2021/11/06 04:01:40;;;;;;;8.17;5.30;;;;;;;9.21;81.54;101914.75;5080801;28;20173;-68
2021/11/06 04:04:06;;;;;;;8.50;5.40;;;;;;;9.16;81.56;101913.75;5080478;28;20196;-68
2021/11/06 04:06:32;;;;;;;6.67;5.50;;;;;;;9.22;82.43;101915.66;5080341;28;20252;-68
2021/11/06 04:08:57;;;;;;;6.83;4.83;;;;;;;9.27;80.91;101919.31;5080922;28;20189;-68
2021/11/06 04:11:23;;;;;;;7.33;5.20;;;;;;;9.46;81.39;101919.91;5080255;28;20415;-69
2021/11/06 04:13:48;;;;;;;8.53;5.27;;;;;;;9.22;81.89;101921.72;5080402;28;20531;-69
2021/11/06 04:16:14;;;;;;;7.97;5.77;;;;;;;9.46;80.80;101922.50;5080616;28;20267;-68
2021/11/06 04:18:39;;;;;;;7.00;5.73;;;;;;;9.05;80.33;101920.25;5062744;28;20168;-68
2021/11/06 04:21:04;;;;;;;7.80;6.20;;;;;;;9.46;80.62;101927.72;5079975;28;20165;-68
2021/11/06 04:23:30;;;;;;;9.70;6.37;;;;;;;9.33;81.03;101932.50;5080455;28;20215;-68
2021/11/06 04:25:55;;;;;;;8.77;6.50;;;;;;;9.33;80.79;101940.31;5062794;28;20165;-68
2021/11/06 04:28:21;;;;;;;7.50;6.00;;;;;;;8.94;82.10;101930.28;5079453;28;20215;-68
2021/11/06 04:30:46;;;;;;;6.13;5.33;;;;;;;9.02;81.70;101935.78;5080396;28;20161;-69
2021/11/06 04:33:12;;;;;;;7.80;5.57;;;;;;;9.21;81.30;101937.31;5062452;28;20180;-68
2021/11/06 04:35:37;;;;;;;7.23;6.37;;;;;;;9.13;82.04;101938.75;5079651;28;20177;-69
2021/11/06 04:38:02;;;;;;;9.43;6.33;;;;;;;9.29;81.30;101934.97;5062765;28;20162;-68
2021/11/06 04:40:28;;;;;;;9.47;6.07;;;;;;;9.43;80.84;101937.22;5079756;28;20546;-68
2021/11/06 04:42:53;;;;;;;11.10;6.07;;;;;;;9.23;81.31;101933.91;5079571;28;20173;-68
2021/11/06 04:45:18;;;;;;;10.00;6.90;;;;;;;8.99;82.32;101936.56;5080326;28;20439;-69
2021/11/06 04:47:44;;;;;;;10.00;8.33;;;;;;;9.12;82.46;101929.16;5062027;28;20568;-68
2021/11/06 04:50:10;;;;;;;9.20;7.83;;;;;;;9.37;81.24;101939.59;5062164;28;20534;-68
2021/11/06 04:52:36;;;;;;;10.30;7.20;;;;;;;9.39;80.56;101950.03;5079727;28;20196;-68
2021/11/06 04:55:07;;;;;;;9.50;7.40;;;;;;;9.38;80.86;101941.38;5079517;28;20422;-69
2021/11/06 04:57:32;;;;;;;9.20;6.90;;;;;;;9.51;79.76;101946.97;5079444;28;20204;-69
2021/11/06 04:59:57;;;;;;;14.17;8.07;;;;;;;9.18;81.61;101947.59;5079945;28;20399;-68
2021/11/06 05:02:23;;;;;;;7.63;6.97;;;;;;;9.08;82.33;101947.28;5079075;28;20184;-68
2021/11/06 05:04:48;;;;;;;11.63;8.23;;;;;;;9.15;81.25;101944.91;5079450;28;20173;-69
2021/11/06 05:07:14;;;;;;;12.40;8.10;;;;;;;9.13;82.21;101954.34;5079660;28;20188;-69
2021/11/06 05:09:39;;;;;;;10.33;9.33;;;;;;;9.40;81.01;101944.00;5079215;28;20501;-70
2021/11/06 05:12:05;;;;;;;9.67;8.67;;;;;;;9.22;82.09;101939.06;5079015;28;20472;-69
2021/11/06 05:14:30;;;;;;;10.50;8.87;;;;;;;9.14;82.37;101945.72;5079423;28;20198;-69
2021/11/06 05:16:56;;;;;;;12.43;9.40;;;;;;;9.04;81.93;101950.59;5078928;28;20189;-69
2021/11/06 05:19:21;;;;;;;13.03;7.60;;;;;;;8.96;82.95;101952.06;5078926;28;20222;-69
2021/11/06 05:21:47;;;;;;;11.30;8.63;;;;;;;9.02;82.46;101953.97;5079257;28;20171;-68
2021/11/06 05:24:12;;;;;;;14.50;8.63;;;;;;;9.04;82.81;101940.19;5078847;28;20173;-68
2021/11/06 05:26:38;;;;;;;11.50;9.43;;;;;;;9.24;81.33;101940.91;5078866;28;20169;-68
2021/11/06 05:29:07;;;;;;;13.30;9.47;;;;;;;9.04;82.71;101939.34;5061902;28;20208;-68
2021/11/06 05:31:33;;;;;;;11.33;9.50;;;;;;;9.04;82.01;101940.19;5078674;28;20458;-68
2021/11/06 05:34:00;;;;;;;10.60;9.47;;;;;;;9.16;82.75;101939.75;5079210;28;20510;-68
2021/11/06 05:36:26;;;;;;;10.57;9.57;;;;;;;9.16;82.71;101941.44;5081481;28;20470;-68
2021/11/06 05:38:51;;;;;;;10.80;9.47;;;;;;;9.13;82.25;101944.81;5078652;28;20400;-68
2021/11/06 05:41:17;;;;;;;13.60;10.50;;;;;;;9.19;82.29;101938.97;5078934;28;20682;-69
2021/11/06 05:43:42;;;;;;;9.83;8.87;;;;;;;9.04;82.91;101950.59;5079322;28;20165;-68
2021/11/06 05:46:08;;;;;;;17.90;10.60;;;;;;;9.07;82.53;101934.22;5078599;28;20176;-67
2021/11/06 05:48:33;;;;;;;14.13;9.87;;;;;;;9.16;81.71;101937.16;5078422;28;20209;-67
2021/11/06 05:50:58;;;;;;;13.10;11.10;;;;;;;8.78;83.14;101941.84;5078541;28;20275;-67
2021/11/06 05:53:24;;;;;;;12.33;10.97;;;;;;;9.24;81.46;101945.19;5078485;28;20168;-68
2021/11/06 05:55:49;;;;;;;12.03;10.80;;;;;;;9.13;81.48;101938.75;5078828;28;20792;-67
2021/11/06 05:58:14;;;;;;;11.33;10.17;;;;;;;8.87;81.83;101938.72;5078434;28;20183;-67
2021/11/06 06:00:40;;;;;;;11.57;9.50;;;;;;;8.89;82.70;101945.75;5078242;28;20177;-68
2021/11/06 06:03:05;;;;;;;18.10;10.80;;;;;;;9.07;82.29;101939.44;5078875;28;20608;-68
2021/11/06 06:05:31;;;;;;;11.50;9.40;;;;;;;9.09;81.11;101949.06;5078429;28;20195;-67
2021/11/06 06:07:56;;;;;;;11.97;9.70;;;;;;;8.98;82.02;101947.78;5078571;28;20205;-68
2021/11/06 06:10:21;;;;;;;11.17;9.50;;;;;;;8.91;81.56;101949.28;5078898;28;20218;-67
2021/11/06 06:12:51;;;;;;;10.70;8.90;;;;;;;8.99;82.46;101940.88;5078021;28;20260;-72
2021/11/06 06:15:16;;;;;;;9.90;8.93;;;;;;;9.00;81.45;101938.31;5078087;28;20191;-68
2021/11/06 06:17:42;;;;;;;10.80;9.30;;;;;;;9.15;80.41;101942.31;5078526;28;20390;-67
2021/11/06 06:20:08;;;;;;;12.67;9.60;;;;;;;9.10;80.88;101943.00;5078251;28;20172;-68
2021/11/06 06:22:34;;;;;;;11.27;9.30;;;;;;;8.85;81.48;101945.56;5078140;28;20184;-68
2021/11/06 06:24:59;;;;;;;10.80;9.67;;;;;;;9.12;81.33;101953.50;5078918;28;20677;-68
2021/11/06 06:27:25;;;;;;;12.87;9.20;;;;;;;8.91;82.61;101948.41;5060828;28;20563;-68
2021/11/06 06:29:50;;;;;;;17.53;10.23;;;;;;;9.00;81.90;101943.53;5078093;28;20168;-67
2021/11/06 06:32:15;;;;;;;11.87;10.07;;;;;;;8.72;82.20;101957.25;5078235;28;20164;-67
2021/11/06 06:34:41;;;;;;;11.37;10.20;;;;;;;8.97;82.31;101955.53;5078081;28;20519;-68
2021/11/06 06:37:06;;;;;;;12.33;10.27;;;;;;;9.01;81.94;101958.31;5077995;28;20173;-68
2021/11/06 06:39:31;;;;;;;12.77;10.77;;;;;;;9.04;81.08;101955.81;5078762;28;20226;-67
2021/11/06 06:41:57;;;;;;;12.90;11.40;;;;;;;8.91;81.62;101964.00;5077842;28;20165;-68
2021/11/06 06:44:22;;;;;;;11.60;10.40;;;;;;;8.85;81.31;101967.28;5077995;28;20165;-70
2021/11/06 06:46:48;;;;;;;13.00;11.40;;;;;;;8.91;81.53;101972.69;5078364;28;20187;-67
2021/11/06 06:49:13;;;;;;;11.63;10.37;;;;;;;9.26;80.60;101962.63;5077807;28;20200;-67
2021/11/06 06:51:38;;;;;;;15.53;11.33;;;;;;;9.21;80.20;101974.59;5080889;28;20269;-66
2021/11/06 06:54:04;;;;;;;12.40;11.10;;;;;;;9.06;80.96;101967.13;5082304;28;20169;-68
2021/11/06 06:56:30;;;;;;;12.63;10.73;;;;;;;9.09;80.91;101968.97;5081810;28;20169;-66
2021/11/06 06:58:56;;;;;;;12.20;10.60;;;;;;;9.47;78.99;101974.66;5081686;28;20161;-67
2021/11/06 07:01:21;;;;;;;14.83;11.20;;;;;;;9.23;79.35;101982.50;5082039;28;20704;-68
2021/11/06 07:03:46;;;;;;;12.30;10.90;;;;;;;8.96;81.15;101979.75;5081499;28;20177;-68
2021/11/06 07:06:12;;;;;;;12.90;11.70;;;;;;;9.18;80.22;101991.84;5081622;28;20173;-65
2021/11/06 07:08:37;;;;;;;15.90;12.30;;;;;;;9.33;79.17;101994.97;5081695;28;20189;-65
2021/11/06 07:11:02;;;;;;;13.50;10.80;;;;;;;9.41;79.07;101993.50;5081264;28;20412;-65
2021/11/06 07:13:28;;;;;;;13.20;11.57;;;;;;;9.27;79.65;101981.75;5081462;28;20226;-66
2021/11/06 07:15:53;;;;;;;12.57;11.37;;;;;;;9.40;80.92;101986.56;5064387;28;20169;-69
2021/11/06 07:18:19;;;;;;;15.10;11.43;;;;;;;9.43;79.63;101989.25;5081316;28;20176;-66
2021/11/06 07:20:44;;;;;;;13.30;11.23;;;;;;;9.40;80.05;101986.56;5063676;28;20180;-67
2021/11/06 07:23:10;;;;;;;14.47;12.57;;;;;;;9.28;80.66;101980.91;5081145;28;20173;-67
2021/11/06 07:25:35;;;;;;;13.40;12.00;;;;;;;9.31;79.37;101978.44;5080392;28;20188;-66
2021/11/06 07:28:01;;;;;;;15.40;11.93;;;;;;;9.41;79.97;101987.44;5080765;28;20211;-67
2021/11/06 07:30:27;;;;;;;14.07;12.43;;;;;;;9.42;79.88;101990.09;5081271;28;20222;-68
2021/11/06 07:32:52;;;;;;;16.10;12.37;;;;;;;9.37;79.66;101978.63;5080701;28;20169;-67
2021/11/06 07:35:18;;;;;;;17.00;11.83;;;;;;;10.00;79.39;101978.94;5080920;28;20473;-66
2021/11/06 07:37:44;;;;;;;15.20;13.60;;;;;;;9.86;79.34;101987.19;5084949;28;20172;-66
2021/11/06 07:40:12;;;;;;;14.60;13.10;;;;;;;9.55;79.54;101993.09;5101432;28;20736;-66
2021/11/06 07:42:39;;;;;;;14.63;13.13;;;;;;;9.34;79.90;101988.94;5091760;28;20196;-64
2021/11/06 07:45:06;;;;;;;21.23;15.30;;;;;;;9.47;79.71;101997.16;5081378;28;20374;-70
2021/11/06 07:47:32;;;;;;;18.53;15.13;;;;;;;9.85;78.12;101994.97;5095066;28;20849;-68
2021/11/06 07:49:57;;;;;;;16.00;12.90;;;;;;;9.73;78.54;101988.53;5100763;28;20393;-67
2021/11/06 07:52:23;;;;;;;17.70;15.47;;;;;;;9.86;78.27;101999.34;5100946;28;20208;-67
2021/11/06 07:54:48;;;;;;;24.57;17.13;;;;;;;9.60;78.79;102004.56;5096727;28;20236;-67
2021/11/06 07:57:13;;;;;;;19.00;16.97;;;;;;;9.43;79.14;101997.06;5080476;28;20165;-64
2021/11/06 07:59:39;;;;;;;25.37;16.30;;;;;;;9.48;78.98;101997.22;5080604;28;20492;-66
2021/11/06 08:02:04;;;;;;;19.67;17.67;;;;;;;9.39;79.80;101986.47;5078286;28;20187;-67
2021/11/06 08:04:29;;;;;;;22.77;18.80;;;;;;;9.74;79.01;101982.50;5080295;28;20526;-72
2021/11/06 08:06:55;;;;;;;21.27;18.57;;;;;;;9.93;78.11;101968.34;5080635;28;20168;-67
2021/11/06 08:09:20;;;;;;;24.93;19.87;;;;;;;9.73;78.53;101965.09;5062702;28;20196;-67
2021/11/06 08:11:46;;;;;;;22.37;19.83;;;;;;;9.84;78.18;101967.16;5080034;28;20530;-68
2021/11/06 08:14:11;;;;;;;25.27;20.43;;;;;;;9.63;78.69;101970.81;5080538;28;20169;-69
2021/11/06 08:16:36;;;;;;;26.27;22.23;;;;;;;9.77;78.80;101966.97;5079789;28;20250;-69
2021/11/06 08:19:02;;;;;;;24.23;21.63;;;;;;;9.59;79.29;101968.94;5080034;28;20176;-70
2021/11/06 08:21:27;;;;;;;26.03;21.57;;;;;;;9.83;78.66;101965.41;5080102;28;20211;-69
2021/11/06 08:23:53;;;;;;;28.53;25.13;;;;;;;9.58;79.47;101975.88;5079887;28;20408;-69
2021/11/06 08:26:18;;;;;;;26.60;23.50;;;;;;;9.57;79.86;101981.03;5080046;28;20482;-70
2021/11/06 08:28:43;;;;;;;30.67;25.00;;;;;;;9.55;79.67;101986.19;5080239;28;20197;-70
2021/11/06 08:31:09;;;;;;;29.70;23.97;;;;;;;9.58;80.38;101982.81;5079706;28;20456;-69
2021/11/06 08:33:34;;;;;;;30.27;25.87;;;;;;;9.70;79.21;101983.22;5079730;28;20255;-70
2021/11/06 08:36:00;;;;;;;31.30;24.97;;;;;;;9.97;78.59;101981.47;5080173;28;20173;-69
2021/11/06 08:38:29;;;;;;;28.53;24.87;;;;;;;9.67;79.08;101979.63;5079864;28;20195;-70
2021/11/06 08:40:54;;;;;;;29.10;25.90;;;;;;;9.53;79.80;101994.78;5079624;28;20164;-70
2021/11/06 08:43:19;;;;;;;31.70;26.10;;;;;;;9.35;80.37;101993.31;5080149;28;20418;-70
2021/11/06 08:45:46;;;;;;;28.97;24.33;;;;;;;9.82;79.20;101994.88;5079391;28;20169;-69
2021/11/06 08:48:12;;;;;;;34.53;25.90;;;;;;;9.46;80.71;101990.19;5079351;28;20291;-68
2021/11/06 08:50:37;;;;;;;32.57;26.60;;;;;;;9.41;80.43;101988.31;5079656;28;20887;-70
2021/11/06 08:53:02;;;;;;;36.50;26.50;;;;;;;9.83;79.62;101986.22;5079379;28;20191;-69
2021/11/06 08:55:28;;;;;;;31.60;27.60;;;;;;;9.69;79.93;101977.97;5079689;28;20165;-69
2021/11/06 08:57:53;;;;;;;31.67;26.40;;;;;;;9.56;80.04;101981.88;5079308;28;20169;-69
2021/11/06 09:00:32;;;;;;;32.30;27.47;;;;;;;9.58;80.23;101988.03;5079138;28;20508;-71
2021/11/06 09:03:10;;;;;;;32.93;28.80;;;;;;;9.60;80.47;101988.94;5078963;28;20165;-69
2021/11/06 09:05:38;;;;;;;35.63;27.40;;;;;;;9.72;80.59;101973.72;5079217;28;20385;-70
2021/11/06 09:08:04;;;;;;;32.43;28.80;;;;;;;9.97;79.44;101971.91;5078921;28;20430;-69
2021/11/06 09:10:30;;;;;;;34.60;29.27;;;;;;;10.32;77.85;101973.88;5078934;28;20392;-70
2021/11/06 09:12:55;;;;;;;30.07;26.80;;;;;;;10.06;78.55;101969.59;5078916;28;20399;-70
2021/11/06 09:15:21;;;;;;;31.93;27.07;;;;;;;10.03;78.47;101974.72;5078840;28;20165;-69
2021/11/06 09:17:46;;;;;;;32.60;27.77;;;;;;;10.17;77.90;101972.53;5078884;28;20255;-70
2021/11/06 09:20:12;;;;;;;31.00;26.80;;;;;;;10.10;78.98;101966.25;5079355;28;20542;-69
2021/11/06 09:22:38;;;;;;;30.43;27.20;;;;;;;9.96;79.07;101972.78;5078736;28;20180;-70
2021/11/06 09:25:05;;;;;;;32.47;27.00;;;;;;;9.79;80.14;101972.22;5078865;28;20210;-70
2021/11/06 09:27:30;;;;;;;29.10;25.90;;;;;;;10.11;79.56;101978.44;5078679;28;20567;-70
2021/11/06 09:29:56;;;;;;;30.27;27.17;;;;;;;10.31;78.06;101975.59;5078632;28;20801;-70
2021/11/06 09:32:21;;;;;;;30.80;27.43;;;;;;;9.78;79.81;101989.56;5078532;28;20246;-70
2021/11/06 09:34:47;;;;;;;33.33;29.83;;;;;;;9.71;80.02;101991.91;5061891;28;20165;-69
2021/11/06 09:37:12;;;;;;;34.30;28.57;;;;;;;9.86;80.19;101987.19;5078583;28;20172;-69
2021/11/06 09:39:37;;;;;;;33.00;27.53;;;;;;;10.00;78.89;101982.44;5078645;28;20175;-70
2021/11/06 09:42:04;;;;;;;33.70;27.93;;;;;;;10.17;78.72;101976.88;5078855;28;20189;-70
2021/11/06 09:44:30;;;;;;;36.73;28.93;;;;;;;10.34;77.92;101980.03;5078552;28;20256;-70
2021/11/06 09:46:57;;;;;;;32.10;28.20;;;;;;;10.32;77.95;101976.47;5061182;28;20419;-69
2021/11/06 09:49:23;;;;;;;29.63;26.40;;;;;;;10.22;78.19;101972.69;5078651;28;20537;-69
2021/11/06 09:51:48;;;;;;;31.60;28.20;;;;;;;9.92;79.37;101983.94;5077983;28;20476;-70
2021/11/06 09:54:14;;;;;;;31.07;27.93;;;;;;;10.23;78.54;101977.09;5078281;28;20500;-70
2021/11/06 09:56:39;;;;;;;29.33;25.93;;;;;;;10.19;78.01;101970.88;5078995;28;20646;-70
2021/11/06 09:59:06;;;;;;;31.43;26.10;;;;;;;10.14;78.49;101964.63;5078291;28;20169;-70
2021/11/06 10:01:32;;;;;;;30.80;26.50;;;;;;;10.21;78.41;101961.38;5077908;28;20192;-69
2021/11/06 10:03:59;;;;;;;32.40;29.00;;;;;;;10.40;78.17;101964.59;5078770;28;20443;-69
2021/11/06 10:06:26;;;;;;;31.00;27.63;;;;;;;10.53;77.77;101971.94;5061066;28;20414;-70
2021/11/06 10:08:54;;;;;;;30.63;27.30;;;;;;;10.69;76.64;101965.44;5078236;28;20463;-70
2021/11/06 10:11:22;;;;;;;30.43;25.97;;;;;;;10.52;76.86;101964.94;5078301;28;20408;-69
2021/11/06 10:14:01;;;;;;;31.67;28.30;;;;;;;10.29;78.52;101961.63;5077989;28;20422;-70
2021/11/06 10:16:53;;;;;;;31.57;27.70;;;;;;;10.46;77.18;101964.78;5078261;28;20405;-69
2021/11/06 10:19:30;;;;;;;33.97;28.40;;;;;;;11.05;75.77;101961.22;5078079;28;20382;-70
2021/11/06 10:22:28;;;;;;;29.70;26.60;;;;;;;10.24;78.21;101961.50;5077852;28;20422;-69
2021/11/06 10:24:57;;;;;;;31.47;26.97;;;;;;;10.75;76.62;101949.97;5065579;28;20451;-69
2021/11/06 10:27:26;;;;;;;30.53;27.30;;;;;;;10.49;78.11;101959.66;5060742;28;20428;-70
2021/11/06 10:30:12;;;;;;;30.27;27.07;;;;;;;10.36;78.15;101957.50;5077908;28;20386;-70
2021/11/06 10:32:39;;;;;;;30.23;27.03;;;;;;;10.36;77.99;101947.09;5078022;28;20374;-70
2021/11/06 10:35:19;;;;;;;31.07;27.77;;;;;;;10.68;77.04;101944.53;5060514;28;20396;-70
2021/11/06 10:37:48;;;;;;;30.73;26.77;;;;;;;10.71;76.53;101934.19;5060726;28;20399;-70
2021/11/06 10:40:16;;;;;;;29.80;26.73;;;;;;;10.69;76.84;101941.97;5060406;28;20423;-70
2021/11/06 10:42:53;;;;;;;30.70;27.57;;;;;;;10.67;77.24;101945.38;5077773;28;20404;-70
2021/11/06 10:45:21;;;;;;;29.67;26.03;;;;;;;10.44;77.57;101950.81;5077700;28;20389;-69
2021/11/06 10:47:54;;;;;;;30.83;27.47;;;;;;;10.23;78.54;101946.69;5060075;28;20454;-70
2021/11/06 10:50:58;;;;;;;32.33;27.20;;;;;;;10.07;79.58;101950.53;5077629;28;20476;-70
2021/11/06 10:53:36;;;;;;;29.97;26.50;;;;;;;10.29;78.46;101940.78;5077857;28;20798;-71
2021/11/06 10:56:04;;;;;;;35.17;29.63;;;;;;;10.69;77.15;101930.66;5077707;28;20461;-72
2021/11/06 10:58:32;;;;;;;32.67;28.73;;;;;;;10.23;78.89;101932.78;5077599;28;20450;-69
2021/11/06 11:01:04;;;;;;;31.33;27.30;;;;;;;10.31;78.61;101928.69;5077475;28;20433;-69
2021/11/06 11:03:32;;;;;;;31.40;27.80;;;;;;;10.68;77.85;101924.56;5077590;28;20703;-70
2021/11/06 11:06:00;;;;;;;33.47;28.00;;;;;;;10.27;78.38;101925.09;5077547;28;20746;-70
2021/11/06 11:08:28;;;;;;;34.83;28.40;;;;;;;10.04;79.80;101918.28;5077373;28;20724;-70
2021/11/06 11:11:04;;;;;;;32.13;28.83;;;;;;;10.60;78.05;101915.63;5077782;28;20370;-70
2021/11/06 11:13:30;;;;;;;33.47;29.67;;;;;;;10.72;77.07;101915.97;5077439;28;20506;-70
2021/11/06 11:16:15;;;;;;;31.13;27.60;;;;;;;10.45;77.72;101903.91;5077127;28;20439;-69
2021/11/06 11:18:40;;;;;;;31.53;28.13;;;;;;;10.64;77.01;101898.38;5077203;28;20413;-70
2021/11/06 11:21:19;;;;;;;31.57;27.73;;;;;;;10.40;78.36;101902.03;5077216;28;20479;-70